Time;durP1;ratioP1;P1;durP2;ratioP2;P2;SDS_P1;SDS_P2;PMS_P1;PMS_P2;Temp;Humidity;BMP_temperature;BMP_pressure;BME280_temperature;BME280_humidity;BME280_pressure;Samples;Min_cycle;Max_cycle;Signal;HPM_P1;HPM_P2
2021/12/21 00:00:33;;;;;;;16.70;9.32;;;;;;;;;;4975791;28;20179;-86
2021/12/21 00:03:00;;;;;;;19.30;9.90;;;;;;;;;;4947171;28;20389;-86
2021/12/21 00:05:29;;;;;;;20.27;10.15;;;;;;;;;;4950436;28;20043;-85
2021/12/21 00:07:56;;;;;;;18.17;9.73;;;;;;;;;;4948192;28;20529;-86
2021/12/21 00:10:24;;;;;;;18.08;9.82;;;;;;;;;;4944508;29;20094;-86
2021/12/21 00:15:34;;;;;;;14.90;8.68;;;;;;;;;;4947397;28;20113;-87
2021/12/21 00:18:07;;;;;;;19.85;9.32;;;;;;;;;;4946081;28;20098;-86
2021/12/21 00:20:53;;;;;;;20.63;9.70;;;;;;;;;;4962826;28;20043;-86
2021/12/21 00:24:02;;;;;;;21.35;9.20;;;;;;;;;;4948869;28;20174;-86
2021/12/21 00:26:13;;;;;;;15.18;9.93;;;;;;;;;;4939420;28;20043;-85
2021/12/21 00:28:58;;;;;;;22.13;10.02;;;;;;;;;;4947826;28;20039;-85
2021/12/21 00:31:25;;;;;;;23.65;10.85;;;;;;;;;;4945392;28;20525;-85
2021/12/21 00:33:51;;;;;;;20.50;10.75;;;;;;;;;;4947939;28;20059;-86
2021/12/21 00:36:19;;;;;;;17.80;10.77;;;;;;;;;;4947605;28;20046;-86
2021/12/21 00:38:46;;;;;;;19.65;10.45;;;;;;;;;;4977929;28;20051;-86
2021/12/21 00:41:12;;;;;;;18.70;10.30;;;;;;;;;;4948214;28;20046;-86
2021/12/21 00:43:38;;;;;;;22.95;10.05;;;;;;;;;;4947926;28;20529;-86
2021/12/21 00:46:05;;;;;;;14.80;9.43;;;;;;;;;;4952394;28;20042;-85
2021/12/21 00:48:32;;;;;;;15.20;9.38;;;;;;;;;;4950357;28;20097;-86
2021/12/21 00:51:01;;;;;;;23.83;10.77;;;;;;;;;;4952128;28;20102;-87
2021/12/21 00:53:27;;;;;;;20.88;9.55;;;;;;;;;;4933060;29;20068;-87
2021/12/21 00:55:53;;;;;;;15.32;9.00;;;;;;;;;;4981056;28;20075;-87
2021/12/21 00:58:20;;;;;;;18.23;8.93;;;;;;;;;;4978664;28;20062;-86
2021/12/21 01:00:46;;;;;;;24.17;9.18;;;;;;;;;;4980946;28;20047;-85
2021/12/21 01:03:14;;;;;;;24.45;10.35;;;;;;;;;;4949323;29;20232;-86
2021/12/21 01:08:15;;;;;;;15.50;8.98;;;;;;;;;;4951109;28;20047;-86
2021/12/21 01:18:23;;;;;;;23.13;9.55;;;;;;;;;;4951822;28;20043;-85
2021/12/21 01:21:03;;;;;;;23.27;8.85;;;;;;;;;;4948475;28;20055;-86
2021/12/21 01:23:52;;;;;;;20.70;8.85;;;;;;;;;;4947971;28;20050;-87
2021/12/21 01:26:31;;;;;;;17.65;8.85;;;;;;;;;;4930346;29;20043;-85
2021/12/21 01:29:19;;;;;;;23.83;8.93;;;;;;;;;;4918084;29;20050;-86
2021/12/21 01:34:37;;;;;;;17.25;8.20;;;;;;;;;;4949331;28;20055;-87
2021/12/21 01:37:31;;;;;;;18.33;9.18;;;;;;;;;;4980646;28;20035;-87
2021/12/21 01:50:53;;;;;;;22.45;8.88;;;;;;;;;;4964341;28;20507;-87
2021/12/21 01:53:19;;;;;;;17.35;8.95;;;;;;;;;;4964404;28;20133;-86
2021/12/21 01:55:45;;;;;;;18.48;9.68;;;;;;;;;;4963067;28;20055;-86
2021/12/21 01:58:11;;;;;;;17.50;9.95;;;;;;;;;;4961320;28;20038;-86
2021/12/21 02:00:38;;;;;;;26.75;10.52;;;;;;;;;;4951213;28;20290;-85
2021/12/21 02:03:05;;;;;;;19.40;9.73;;;;;;;;;;4948812;28;20043;-86
2021/12/21 02:05:32;;;;;;;17.42;9.98;;;;;;;;;;4948651;28;20183;-87
2021/12/21 02:07:58;;;;;;;19.35;8.93;;;;;;;;;;4979199;28;20050;-86
2021/12/21 02:10:24;;;;;;;19.13;9.02;;;;;;;;;;4949970;28;20039;-87
2021/12/21 02:12:50;;;;;;;19.55;8.88;;;;;;;;;;4977827;28;20427;-87
2021/12/21 02:15:17;;;;;;;19.17;8.48;;;;;;;;;;4979941;28;20214;-86
2021/12/21 02:23:22;;;;;;;14.63;8.05;;;;;;;;;;4944336;28;20075;-86
2021/12/21 02:26:10;;;;;;;20.33;8.48;;;;;;;;;;4946602;28;20055;-87
2021/12/21 02:31:05;;;;;;;13.25;7.75;;;;;;;;;;4980050;28;20448;-86
2021/12/21 02:33:32;;;;;;;14.23;8.00;;;;;;;;;;4979403;28;20043;-86
2021/12/21 02:35:58;;;;;;;25.10;8.57;;;;;;;;;;4980005;28;21902;-87
2021/12/21 02:38:25;;;;;;;20.92;9.40;;;;;;;;;;4975906;28;20058;-87
2021/12/21 02:40:52;;;;;;;12.18;8.05;;;;;;;;;;4963440;28;20051;-86
2021/12/21 02:43:18;;;;;;;17.60;8.75;;;;;;;;;;4978938;28;20035;-87
2021/12/21 02:45:45;;;;;;;21.27;9.82;;;;;;;;;;4947064;28;20051;-87
2021/12/21 02:48:11;;;;;;;20.90;8.80;;;;;;;;;;4948502;28;20063;-87
2021/12/21 02:50:38;;;;;;;18.13;8.75;;;;;;;;;;4948430;28;20407;-87
2021/12/21 02:53:05;;;;;;;18.25;8.95;;;;;;;;;;4950478;28;20051;-85
2021/12/21 02:55:31;;;;;;;16.92;8.68;;;;;;;;;;4931850;29;20035;-86
2021/12/21 02:57:57;;;;;;;20.38;8.80;;;;;;;;;;4964780;28;20098;-87
2021/12/21 03:00:27;;;;;;;15.73;7.72;;;;;;;;;;4947822;28;20051;-88
2021/12/21 03:02:53;;;;;;;12.02;7.88;;;;;;;;;;4948464;28;20085;-87
2021/12/21 03:05:20;;;;;;;18.15;8.40;;;;;;;;;;4947642;29;20496;-88
2021/12/21 03:10:30;;;;;;;17.30;8.15;;;;;;;;;;4980367;28;20043;-88
2021/12/21 03:15:41;;;;;;;16.52;8.52;;;;;;;;;;4948415;28;20150;-88
2021/12/21 03:18:07;;;;;;;19.23;8.75;;;;;;;;;;4932655;28;20171;-87
2021/12/21 03:20:33;;;;;;;15.65;8.38;;;;;;;;;;4930395;28;20047;-87
2021/12/21 03:22:59;;;;;;;14.98;8.30;;;;;;;;;;4945247;28;20314;-86
2021/12/21 03:25:25;;;;;;;15.40;8.18;;;;;;;;;;4950909;28;20049;-86
2021/12/21 03:27:52;;;;;;;18.92;9.95;;;;;;;;;;4949088;28;20051;-86
2021/12/21 03:30:18;;;;;;;19.13;8.40;;;;;;;;;;4948293;28;20054;-86
2021/12/21 03:32:44;;;;;;;19.30;8.27;;;;;;;;;;4978824;28;20047;-87
2021/12/21 03:35:10;;;;;;;19.20;9.07;;;;;;;;;;4975824;28;20055;-86
2021/12/21 03:37:36;;;;;;;14.70;8.43;;;;;;;;;;4947139;28;20090;-86
2021/12/21 03:40:04;;;;;;;20.00;7.90;;;;;;;;;;4947328;28;20039;-86
2021/12/21 03:42:30;;;;;;;19.92;8.80;;;;;;;;;;4962698;28;20043;-87
2021/12/21 03:44:56;;;;;;;15.73;8.75;;;;;;;;;;4946477;28;20046;-86
2021/12/21 03:47:23;;;;;;;16.38;9.60;;;;;;;;;;4948231;28;20038;-87
2021/12/21 03:52:20;;;;;;;16.92;8.25;;;;;;;;;;4977583;28;20140;-87
2021/12/21 03:54:47;;;;;;;14.43;8.30;;;;;;;;;;4929599;29;20051;-86
2021/12/21 03:57:14;;;;;;;28.38;9.80;;;;;;;;;;4948828;28;20373;-87
2021/12/21 03:59:43;;;;;;;20.50;8.82;;;;;;;;;;4947402;28;20051;-86
2021/12/21 04:02:11;;;;;;;13.45;8.18;;;;;;;;;;4961363;28;20134;-87
2021/12/21 04:04:38;;;;;;;15.77;8.60;;;;;;;;;;4961685;28;20054;-88
2021/12/21 04:07:04;;;;;;;16.27;8.65;;;;;;;;;;4946124;28;20400;-86
2021/12/21 04:09:30;;;;;;;11.50;8.43;;;;;;;;;;4947221;28;20046;-86
2021/12/21 04:11:56;;;;;;;17.70;8.88;;;;;;;;;;4949157;28;20063;-86
2021/12/21 04:14:22;;;;;;;22.33;11.23;;;;;;;;;;4945795;28;20567;-86
2021/12/21 04:16:49;;;;;;;20.83;10.77;;;;;;;;;;4929141;29;20047;-86
2021/12/21 04:19:17;;;;;;;23.23;11.13;;;;;;;;;;4949159;28;20055;-86
2021/12/21 04:21:43;;;;;;;20.33;11.00;;;;;;;;;;4955568;28;20503;-86
2021/12/21 04:24:09;;;;;;;20.30;10.63;;;;;;;;;;4934556;29;20394;-85
2021/12/21 04:26:35;;;;;;;16.40;9.55;;;;;;;;;;4965921;28;20397;-86
2021/12/21 04:29:02;;;;;;;20.90;10.63;;;;;;;;;;4952945;28;20050;-86
2021/12/21 04:31:28;;;;;;;21.55;10.05;;;;;;;;;;4950554;28;20415;-86
2021/12/21 04:33:54;;;;;;;18.25;10.75;;;;;;;;;;4933540;29;20087;-86
2021/12/21 04:36:20;;;;;;;28.77;11.48;;;;;;;;;;4950526;29;20043;-86
2021/12/21 04:38:49;;;;;;;21.60;11.07;;;;;;;;;;4935923;28;20482;-86
2021/12/21 04:41:22;;;;;;;18.67;9.90;;;;;;;;;;4934288;29;20070;-87
2021/12/21 04:43:48;;;;;;;19.27;9.80;;;;;;;;;;4931613;29;20051;-87
2021/12/21 04:46:14;;;;;;;21.95;9.55;;;;;;;;;;4933219;29;20078;-87
2021/12/21 04:48:40;;;;;;;20.55;9.98;;;;;;;;;;4966170;28;20106;-86
2021/12/21 04:51:06;;;;;;;16.45;9.57;;;;;;;;;;4952851;28;20138;-86
2021/12/21 04:53:33;;;;;;;19.33;10.35;;;;;;;;;;4964027;28;20039;-86
2021/12/21 04:55:59;;;;;;;21.70;10.07;;;;;;;;;;4951565;28;20491;-86
2021/12/21 04:58:25;;;;;;;17.70;9.10;;;;;;;;;;4919290;29;20058;-86
2021/12/21 05:00:51;;;;;;;18.45;9.07;;;;;;;;;;4917261;29;20090;-87
2021/12/21 05:03:17;;;;;;;19.30;9.40;;;;;;;;;;4965235;28;20456;-86
2021/12/21 05:05:44;;;;;;;14.75;9.50;;;;;;;;;;4965370;28;20411;-86
2021/12/21 05:08:13;;;;;;;16.08;9.23;;;;;;;;;;4965186;28;20436;-86
2021/12/21 05:10:49;;;;;;;19.73;9.00;;;;;;;;;;4949739;28;20096;-86
2021/12/21 05:13:16;;;;;;;18.20;8.50;;;;;;;;;;4948584;28;20146;-86
2021/12/21 05:15:42;;;;;;;14.90;8.73;;;;;;;;;;4930262;29;20055;-86
2021/12/21 05:18:09;;;;;;;15.13;8.15;;;;;;;;;;4931682;29;20039;-87
2021/12/21 05:20:35;;;;;;;18.48;9.05;;;;;;;;;;4931670;28;20032;-86
2021/12/21 05:23:01;;;;;;;18.00;8.90;;;;;;;;;;4931779;29;20134;-86
2021/12/21 05:25:27;;;;;;;14.95;8.50;;;;;;;;;;4948382;28;20522;-86
2021/12/21 05:27:53;;;;;;;17.67;9.15;;;;;;;;;;4961388;28;20175;-87
2021/12/21 05:30:19;;;;;;;18.80;9.60;;;;;;;;;;4943833;28;20035;-86
2021/12/21 05:32:45;;;;;;;18.40;9.48;;;;;;;;;;4937624;29;20567;-86
2021/12/21 05:35:11;;;;;;;13.90;8.50;;;;;;;;;;4933719;29;20047;-86
2021/12/21 05:37:39;;;;;;;15.80;8.40;;;;;;;;;;4942326;28;20031;-86
2021/12/21 05:40:12;;;;;;;19.17;8.90;;;;;;;;;;4930978;28;20042;-86
2021/12/21 05:42:38;;;;;;;17.40;8.05;;;;;;;;;;4924111;28;20046;-86
2021/12/21 05:45:05;;;;;;;13.68;9.05;;;;;;;;;;4962611;28;20047;-87
2021/12/21 05:47:31;;;;;;;17.38;9.57;;;;;;;;;;4952223;28;20040;-88
2021/12/21 05:49:57;;;;;;;16.35;8.43;;;;;;;;;;4949705;28;20102;-84
2021/12/21 05:52:23;;;;;;;13.57;8.27;;;;;;;;;;4949873;28;20059;-85
2021/12/21 05:54:49;;;;;;;16.55;8.60;;;;;;;;;;4962694;28;20035;-86
2021/12/21 05:57:16;;;;;;;12.40;8.30;;;;;;;;;;4962710;28;20070;-85
2021/12/21 05:59:42;;;;;;;13.23;9.18;;;;;;;;;;4961028;28;20128;-87
2021/12/21 06:02:09;;;;;;;16.23;8.70;;;;;;;;;;4933511;28;20097;-86
2021/12/21 06:04:35;;;;;;;20.63;9.10;;;;;;;;;;4946628;28;20043;-84
2021/12/21 06:07:01;;;;;;;11.18;7.85;;;;;;;;;;4949696;28;20538;-84
2021/12/21 06:09:29;;;;;;;17.50;7.97;;;;;;;;;;4931618;28;20043;-84
2021/12/21 06:15:08;;;;;;;14.23;7.57;;;;;;;;;;4912624;29;20094;-83
2021/12/21 06:23:45;;;;;;;19.25;8.50;;;;;;;;;;4945663;29;20514;-84
2021/12/21 06:26:07;;;;;;;15.93;10.15;;;;;;;;;;4922922;29;20079;-84
2021/12/21 06:28:33;;;;;;;20.05;8.63;;;;;;;;;;4927710;28;20511;-83
2021/12/21 06:31:00;;;;;;;14.10;8.35;;;;;;;;;;4935474;29;20039;-83
2021/12/21 06:33:26;;;;;;;18.67;9.05;;;;;;;;;;4916270;28;20480;-84
2021/12/21 06:35:52;;;;;;;15.63;8.98;;;;;;;;;;4955260;28;20138;-83
2021/12/21 06:38:19;;;;;;;12.15;8.77;;;;;;;;;;4937546;29;20045;-82
2021/12/21 06:40:48;;;;;;;18.83;9.02;;;;;;;;;;4947253;28;20051;-83
2021/12/21 06:43:16;;;;;;;23.45;10.18;;;;;;;;;;4926804;29;20082;-83
2021/12/21 06:45:48;;;;;;;19.63;10.43;;;;;;;;;;4938360;28;20043;-82
2021/12/21 06:53:38;;;;;;;21.15;10.10;;;;;;;;;;4943025;28;20138;-83
2021/12/21 06:56:05;;;;;;;19.73;10.73;;;;;;;;;;4927282;29;20044;-84
2021/12/21 06:58:31;;;;;;;20.08;10.05;;;;;;;;;;4935602;29;20542;-82
2021/12/21 07:00:57;;;;;;;19.63;9.82;;;;;;;;;;4913954;29;20062;-84
2021/12/21 07:03:24;;;;;;;18.77;9.82;;;;;;;;;;4929131;29;20089;-82
2021/12/21 07:05:51;;;;;;;23.40;11.50;;;;;;;;;;4927654;29;20039;-83
2021/12/21 07:08:22;;;;;;;16.77;9.55;;;;;;;;;;4932082;29;20091;-83
2021/12/21 07:10:56;;;;;;;17.10;9.43;;;;;;;;;;4926293;29;20051;-87
2021/12/21 07:19:05;;;;;;;22.20;9.95;;;;;;;;;;4934072;29;20054;-84
2021/12/21 07:21:31;;;;;;;18.58;11.82;;;;;;;;;;4930378;29;20665;-82
2021/12/21 07:23:57;;;;;;;16.75;10.88;;;;;;;;;;4938524;28;20467;-83
2021/12/21 07:26:24;;;;;;;22.92;11.05;;;;;;;;;;4927760;29;21027;-83
2021/12/21 07:28:51;;;;;;;18.25;10.88;;;;;;;;;;4951809;28;20094;-84
2021/12/21 07:31:17;;;;;;;19.88;11.85;;;;;;;;;;4927163;29;20471;-82
2021/12/21 07:33:43;;;;;;;22.38;11.18;;;;;;;;;;4912431;29;20082;-84
2021/12/21 07:36:09;;;;;;;23.42;12.57;;;;;;;;;;4942757;28;20047;-81
2021/12/21 07:38:35;;;;;;;21.13;10.95;;;;;;;;;;4940603;29;20468;-85
2021/12/21 07:41:01;;;;;;;21.88;10.20;;;;;;;;;;4939904;28;20046;-84
2021/12/21 07:43:28;;;;;;;20.38;10.95;;;;;;;;;;4943317;29;20510;-82
2021/12/21 07:45:54;;;;;;;16.10;10.05;;;;;;;;;;4937831;29;20578;-83
2021/12/21 07:48:20;;;;;;;18.83;10.88;;;;;;;;;;4926794;29;20043;-84
2021/12/21 07:50:47;;;;;;;16.52;10.43;;;;;;;;;;4926667;29;20052;-83
2021/12/21 07:53:14;;;;;;;17.77;10.95;;;;;;;;;;4926824;29;20090;-82
2021/12/21 07:55:40;;;;;;;21.27;10.77;;;;;;;;;;4937715;29;20043;-84
2021/12/21 07:58:06;;;;;;;19.90;12.70;;;;;;;;;;4915591;29;20492;-84
2021/12/21 08:00:33;;;;;;;18.83;10.98;;;;;;;;;;4940526;29;20081;-86
2021/12/21 08:02:59;;;;;;;21.85;10.57;;;;;;;;;;4931443;29;20150;-84
2021/12/21 08:05:30;;;;;;;17.83;10.85;;;;;;;;;;4926944;29;20125;-84
2021/12/21 08:08:07;;;;;;;25.20;11.77;;;;;;;;;;4927899;29;20139;-83
2021/12/21 08:10:43;;;;;;;26.35;12.02;;;;;;;;;;4929203;29;20078;-84
2021/12/21 08:13:09;;;;;;;20.13;11.85;;;;;;;;;;4933938;29;20078;-83
2021/12/21 08:15:35;;;;;;;21.15;11.20;;;;;;;;;;4941850;29;20039;-83
2021/12/21 08:18:01;;;;;;;19.45;10.50;;;;;;;;;;4933300;29;20147;-86
2021/12/21 08:20:27;;;;;;;15.95;10.50;;;;;;;;;;4915820;29;20043;-85
2021/12/21 08:22:58;;;;;;;20.05;10.73;;;;;;;;;;4936700;29;20028;-84
2021/12/21 08:25:28;;;;;;;18.35;10.77;;;;;;;;;;4938218;29;20047;-84
2021/12/21 08:27:58;;;;;;;22.27;10.63;;;;;;;;;;4943093;29;20046;-85
2021/12/21 08:30:28;;;;;;;20.40;11.02;;;;;;;;;;4935441;29;20073;-87
2021/12/21 08:32:54;;;;;;;18.50;10.15;;;;;;;;;;4939999;29;20051;-84
2021/12/21 08:35:21;;;;;;;20.85;11.27;;;;;;;;;;4942060;28;20051;-85
2021/12/21 08:38:00;;;;;;;17.60;9.40;;;;;;;;;;4926636;29;20051;-88
2021/12/21 08:40:36;;;;;;;20.63;10.88;;;;;;;;;;4917234;29;20047;-91
2021/12/21 08:43:35;;;;;;;21.90;9.23;;;;;;;;;;4914963;29;20097;-91
2021/12/21 08:46:01;;;;;;;20.85;10.00;;;;;;;;;;4941040;29;20040;-91
2021/12/21 08:48:28;;;;;;;21.10;10.30;;;;;;;;;;4891172;29;20040;-88
2021/12/21 08:50:55;;;;;;;18.90;9.52;;;;;;;;;;4949994;28;20488;-87
2021/12/21 08:56:19;;;;;;;17.90;10.00;;;;;;;;;;4925602;28;20091;-88
2021/12/21 08:58:45;;;;;;;18.20;10.18;;;;;;;;;;4912353;29;20884;-85
2021/12/21 09:01:11;;;;;;;17.95;10.52;;;;;;;;;;4943194;28;20043;-84
2021/12/21 09:03:37;;;;;;;22.20;10.23;;;;;;;;;;4937120;29;20071;-84
2021/12/21 09:06:04;;;;;;;17.92;9.77;;;;;;;;;;4931311;29;20036;-84
2021/12/21 09:08:30;;;;;;;22.17;10.00;;;;;;;;;;4934827;29;20610;-84
2021/12/21 09:11:02;;;;;;;22.58;10.40;;;;;;;;;;4937974;29;20492;-85
2021/12/21 09:13:29;;;;;;;16.13;9.38;;;;;;;;;;4925791;29;20059;-84
2021/12/21 09:15:55;;;;;;;21.90;9.75;;;;;;;;;;4947147;29;20122;-84
2021/12/21 09:18:21;;;;;;;15.90;9.77;;;;;;;;;;4941249;28;20044;-84
2021/12/21 09:20:47;;;;;;;17.05;10.55;;;;;;;;;;4927822;29;20186;-84
2021/12/21 09:23:14;;;;;;;17.92;10.88;;;;;;;;;;4931216;29;20083;-84
2021/12/21 09:25:40;;;;;;;17.50;10.10;;;;;;;;;;4928858;29;20102;-84
2021/12/21 09:28:06;;;;;;;17.00;9.95;;;;;;;;;;4933090;29;20095;-85
2021/12/21 09:30:32;;;;;;;20.95;10.10;;;;;;;;;;4929254;29;20547;-84
2021/12/21 09:32:59;;;;;;;16.23;10.10;;;;;;;;;;4931581;29;20138;-85
2021/12/21 09:35:25;;;;;;;17.10;9.55;;;;;;;;;;4947600;29;20047;-84
2021/12/21 09:37:51;;;;;;;20.02;9.90;;;;;;;;;;4930835;29;20504;-85
2021/12/21 09:40:20;;;;;;;17.95;9.95;;;;;;;;;;4936591;28;20031;-83
2021/12/21 09:42:48;;;;;;;21.80;10.07;;;;;;;;;;4931118;29;20052;-83
2021/12/21 09:45:14;;;;;;;18.95;10.02;;;;;;;;;;4945164;28;20043;-83
2021/12/21 09:47:41;;;;;;;15.05;10.10;;;;;;;;;;4932424;29;20050;-85
2021/12/21 09:50:08;;;;;;;16.13;9.45;;;;;;;;;;4943749;29;20158;-86
2021/12/21 09:52:35;;;;;;;17.40;9.10;;;;;;;;;;4934590;29;20202;-85
2021/12/21 09:55:02;;;;;;;17.35;8.82;;;;;;;;;;4931273;28;20055;-85
2021/12/21 09:57:29;;;;;;;14.80;9.43;;;;;;;;;;4933431;29;20086;-85
2021/12/21 09:59:55;;;;;;;16.75;9.70;;;;;;;;;;4932409;29;20044;-85
2021/12/21 10:02:23;;;;;;;19.15;9.80;;;;;;;;;;4938254;29;20126;-85
2021/12/21 10:04:51;;;;;;;17.35;9.38;;;;;;;;;;4916703;29;20047;-85
2021/12/21 10:07:18;;;;;;;16.75;9.07;;;;;;;;;;4938679;29;20039;-85
2021/12/21 10:09:47;;;;;;;16.63;9.35;;;;;;;;;;4936798;29;20054;-85
2021/12/21 10:12:32;;;;;;;21.25;9.50;;;;;;;;;;4933493;29;20535;-85
2021/12/21 10:15:18;;;;;;;14.32;8.75;;;;;;;;;;4947452;28;20043;-84
2021/12/21 10:17:49;;;;;;;14.70;8.65;;;;;;;;;;4945116;28;20134;-85
2021/12/21 10:20:29;;;;;;;12.93;8.73;;;;;;;;;;4947704;28;20047;-86
2021/12/21 10:22:55;;;;;;;22.25;9.18;;;;;;;;;;4959096;28;20041;-85
2021/12/21 10:25:23;;;;;;;13.57;8.20;;;;;;;;;;4938389;28;20074;-85
2021/12/21 10:27:49;;;;;;;14.65;7.90;;;;;;;;;;4963900;28;20077;-86
2021/12/21 10:30:15;;;;;;;15.68;7.85;;;;;;;;;;4950979;28;20054;-85
2021/12/21 10:32:52;;;;;;;13.80;7.05;;;;;;;;;;4957448;28;20117;-85
2021/12/21 10:35:19;;;;;;;9.90;6.65;;;;;;;;;;4966706;28;20042;-86
2021/12/21 10:37:49;;;;;;;15.05;7.13;;;;;;;;;;4950805;28;20788;-85
2021/12/21 10:40:25;;;;;;;18.20;8.30;;;;;;;;;;4934322;28;20047;-86
2021/12/21 10:42:51;;;;;;;14.32;7.10;;;;;;;;;;4931916;28;20059;-85
2021/12/21 10:45:18;;;;;;;12.95;6.95;;;;;;;;;;4930520;28;20058;-88
2021/12/21 10:47:46;;;;;;;14.88;6.35;;;;;;;;;;4899611;28;20051;-86
2021/12/21 10:50:13;;;;;;;12.30;7.00;;;;;;;;;;4932564;28;20571;-87
2021/12/21 10:52:40;;;;;;;13.00;6.90;;;;;;;;;;4968207;28;20423;-86
2021/12/21 10:55:06;;;;;;;14.50;7.13;;;;;;;;;;4970999;28;20054;-86
2021/12/21 10:57:33;;;;;;;10.60;6.25;;;;;;;;;;4959777;28;20046;-85
2021/12/21 11:00:01;;;;;;;10.45;6.47;;;;;;;;;;4980958;28;20129;-85
2021/12/21 11:02:35;;;;;;;17.85;6.80;;;;;;;;;;4967993;28;20070;-86
2021/12/21 11:05:24;;;;;;;12.95;6.72;;;;;;;;;;4953862;28;20070;-86
2021/12/21 11:07:58;;;;;;;9.02;6.05;;;;;;;;;;4916573;28;20138;-85
2021/12/21 11:10:32;;;;;;;16.40;7.25;;;;;;;;;;4915981;28;20062;-86
2021/12/21 11:12:59;;;;;;;19.27;6.90;;;;;;;;;;4932664;28;20148;-88
2021/12/21 11:15:31;;;;;;;14.50;6.85;;;;;;;;;;4941612;28;20054;-87
2021/12/21 11:17:58;;;;;;;11.75;6.15;;;;;;;;;;4946345;28;20043;-87
2021/12/21 11:20:24;;;;;;;10.57;5.90;;;;;;;;;;4916320;28;20054;-87
2021/12/21 11:22:51;;;;;;;13.60;5.88;;;;;;;;;;4950656;28;20045;-86
2021/12/21 11:25:43;;;;;;;11.15;6.03;;;;;;;;;;4950955;28;20046;-85
2021/12/21 11:28:13;;;;;;;11.05;5.57;;;;;;;;;;4923488;28;20043;-84
2021/12/21 11:30:40;;;;;;;13.15;6.68;;;;;;;;;;4961058;28;20038;-84
2021/12/21 11:33:07;;;;;;;11.25;6.45;;;;;;;;;;4954090;28;20063;-85
2021/12/21 11:38:11;;;;;;;11.68;5.80;;;;;;;;;;4937098;28;20054;-84
2021/12/21 11:40:39;;;;;;;13.85;6.93;;;;;;;;;;4959275;28;20039;-85
2021/12/21 11:43:23;;;;;;;12.55;6.00;;;;;;;;;;4955433;28;20471;-84
2021/12/21 11:45:49;;;;;;;13.27;6.00;;;;;;;;;;4940278;28;20046;-87
2021/12/21 11:48:15;;;;;;;15.95;6.43;;;;;;;;;;4921142;28;20061;-86
2021/12/21 11:50:49;;;;;;;11.60;6.47;;;;;;;;;;4952002;28;20467;-85
2021/12/21 11:53:17;;;;;;;16.00;6.38;;;;;;;;;;4932846;28;20082;-86
2021/12/21 11:55:48;;;;;;;9.68;5.68;;;;;;;;;;4940873;28;20058;-84
2021/12/21 11:58:14;;;;;;;13.70;6.72;;;;;;;;;;4937287;28;20173;-86
2021/12/21 12:00:46;;;;;;;10.77;6.43;;;;;;;;;;4959851;28;20081;-83
2021/12/21 12:03:21;;;;;;;10.80;6.00;;;;;;;;;;4930763;28;20035;-86
2021/12/21 12:06:07;;;;;;;15.02;6.32;;;;;;;;;;4955433;28;20058;-85
2021/12/21 12:08:49;;;;;;;13.77;5.40;;;;;;;;;;4955032;28;20051;-85
2021/12/21 12:11:26;;;;;;;13.68;6.10;;;;;;;;;;4935541;28;20052;-84
2021/12/21 12:14:03;;;;;;;12.75;5.97;;;;;;;;;;4954696;28;20071;-85
2021/12/21 12:16:39;;;;;;;9.70;5.90;;;;;;;;;;4954324;28;20526;-84
2021/12/21 12:19:10;;;;;;;10.63;6.05;;;;;;;;;;4960086;28;20047;-85
2021/12/21 12:21:36;;;;;;;8.98;5.28;;;;;;;;;;4935497;28;20134;-85
2021/12/21 12:24:04;;;;;;;13.07;5.63;;;;;;;;;;4959180;28;20126;-85
2021/12/21 12:26:40;;;;;;;11.90;5.80;;;;;;;;;;4942770;28;20519;-85
2021/12/21 12:29:12;;;;;;;11.30;5.57;;;;;;;;;;4953351;28;20050;-84
2021/12/21 12:31:39;;;;;;;11.35;5.65;;;;;;;;;;4957253;28;20439;-84
2021/12/21 12:34:06;;;;;;;12.63;5.70;;;;;;;;;;4948434;28;20106;-86
2021/12/21 12:36:50;;;;;;;14.02;6.13;;;;;;;;;;4949830;28;20051;-84
2021/12/21 12:39:34;;;;;;;14.70;6.07;;;;;;;;;;4955059;28;20117;-84
2021/12/21 12:42:05;;;;;;;18.05;6.35;;;;;;;;;;4948754;28;20134;-85
2021/12/21 12:44:31;;;;;;;14.85;6.90;;;;;;;;;;4961464;28;20058;-84
2021/12/21 12:46:58;;;;;;;12.25;6.53;;;;;;;;;;4936821;28;20039;-84
2021/12/21 12:49:29;;;;;;;13.35;7.28;;;;;;;;;;4948115;28;20032;-85
2021/12/21 12:52:14;;;;;;;19.40;8.70;;;;;;;;;;4955144;28;20130;-85
2021/12/21 12:55:04;;;;;;;18.08;8.60;;;;;;;;;;4958028;28;21201;-85
2021/12/21 12:57:37;;;;;;;17.33;8.45;;;;;;;;;;4944904;28;20106;-84
2021/12/21 13:00:13;;;;;;;16.75;9.00;;;;;;;;;;4960242;28;20043;-84
2021/12/21 13:02:50;;;;;;;11.75;7.45;;;;;;;;;;4961078;28;20557;-84
2021/12/21 13:05:16;;;;;;;15.30;7.35;;;;;;;;;;4962121;28;20483;-84
2021/12/21 13:07:44;;;;;;;12.95;7.13;;;;;;;;;;4964787;28;20054;-84
2021/12/21 13:10:10;;;;;;;12.98;6.97;;;;;;;;;;4972310;28;20043;-84
2021/12/21 13:12:37;;;;;;;17.73;7.55;;;;;;;;;;4966747;28;20059;-84
2021/12/21 13:15:04;;;;;;;12.20;7.82;;;;;;;;;;4959835;28;20047;-84
2021/12/21 13:17:30;;;;;;;17.77;8.13;;;;;;;;;;4956856;28;20035;-84
2021/12/21 13:19:56;;;;;;;16.05;8.27;;;;;;;;;;4965065;28;20058;-83
2021/12/21 13:22:23;;;;;;;16.40;8.27;;;;;;;;;;4962043;28;20061;-83
2021/12/21 13:24:51;;;;;;;21.00;8.38;;;;;;;;;;4960893;28;20049;-83
2021/12/21 13:27:20;;;;;;;13.75;7.35;;;;;;;;;;4962309;28;20109;-83
2021/12/21 13:29:47;;;;;;;15.93;7.57;;;;;;;;;;4959236;28;20047;-82
2021/12/21 13:32:15;;;;;;;12.82;7.57;;;;;;;;;;4958072;28;20065;-84
2021/12/21 13:34:43;;;;;;;13.02;8.30;;;;;;;;;;4972058;28;20066;-83
2021/12/21 13:37:11;;;;;;;12.75;8.05;;;;;;;;;;4957807;28;20035;-84
2021/12/21 13:39:59;;;;;;;16.35;7.70;;;;;;;;;;4921080;28;20058;-84
2021/12/21 13:42:30;;;;;;;14.63;7.97;;;;;;;;;;4927163;28;20127;-84
2021/12/21 13:45:01;;;;;;;14.60;7.68;;;;;;;;;;4946932;28;20049;-85
2021/12/21 13:47:29;;;;;;;14.52;7.18;;;;;;;;;;4942497;28;20102;-84
2021/12/21 13:49:55;;;;;;;14.63;7.57;;;;;;;;;;4967081;28;20050;-84
2021/12/21 13:52:21;;;;;;;16.00;7.15;;;;;;;;;;4935134;28;20649;-84
2021/12/21 13:54:49;;;;;;;12.98;7.70;;;;;;;;;;4950685;28;20514;-83
2021/12/21 13:57:16;;;;;;;12.85;7.65;;;;;;;;;;4935026;28;20459;-85
2021/12/21 13:59:42;;;;;;;19.38;7.85;;;;;;;;;;4937130;28;20471;-84
2021/12/21 14:02:17;;;;;;;15.75;6.93;;;;;;;;;;4939228;28;20042;-85
2021/12/21 14:04:58;;;;;;;11.10;7.35;;;;;;;;;;4937925;28;20038;-84
2021/12/21 14:07:25;;;;;;;13.63;7.80;;;;;;;;;;4926061;28;20496;-85
2021/12/21 14:10:01;;;;;;;15.27;8.02;;;;;;;;;;4947856;28;20093;-83
2021/12/21 14:12:27;;;;;;;12.85;7.53;;;;;;;;;;4950541;28;20356;-84
2021/12/21 14:14:53;;;;;;;19.67;6.97;;;;;;;;;;4964290;28;20047;-84
2021/12/21 14:17:19;;;;;;;17.92;7.10;;;;;;;;;;4961430;28;20500;-83
2021/12/21 14:19:54;;;;;;;12.15;6.82;;;;;;;;;;4964344;28;20561;-84
2021/12/21 14:22:21;;;;;;;14.48;6.57;;;;;;;;;;4978427;28;20047;-85
2021/12/21 14:24:49;;;;;;;9.10;6.68;;;;;;;;;;4964764;28;20525;-85
2021/12/21 14:27:27;;;;;;;15.73;6.80;;;;;;;;;;4947947;28;20035;-85
2021/12/21 14:30:05;;;;;;;13.77;7.13;;;;;;;;;;4972922;28;20172;-84
2021/12/21 14:35:44;;;;;;;16.13;7.40;;;;;;;;;;4950495;28;20150;-84
2021/12/21 14:38:21;;;;;;;14.32;6.95;;;;;;;;;;4980737;28;20053;-86
2021/12/21 14:40:48;;;;;;;11.48;6.65;;;;;;;;;;4972300;28;20102;-85
2021/12/21 14:43:27;;;;;;;10.90;7.00;;;;;;;;;;4968308;28;20051;-85
2021/12/21 14:45:59;;;;;;;17.45;7.13;;;;;;;;;;4959941;28;20061;-86
2021/12/21 14:48:27;;;;;;;14.95;6.90;;;;;;;;;;4949051;29;20075;-86
2021/12/21 14:51:04;;;;;;;13.75;7.97;;;;;;;;;;4959014;28;20038;-86
2021/12/21 14:53:42;;;;;;;15.73;7.70;;;;;;;;;;4961036;28;20570;-85
2021/12/21 14:56:08;;;;;;;17.55;8.85;;;;;;;;;;4955945;28;20046;-86
2021/12/21 14:58:34;;;;;;;15.85;8.32;;;;;;;;;;4964445;28;20035;-87
2021/12/21 15:01:03;;;;;;;12.48;8.15;;;;;;;;;;4965182;28;20043;-84
2021/12/21 15:03:38;;;;;;;15.77;9.32;;;;;;;;;;4950088;28;20137;-84
2021/12/21 15:06:05;;;;;;;14.63;7.82;;;;;;;;;;4959571;28;20042;-85
2021/12/21 15:08:33;;;;;;;13.40;8.30;;;;;;;;;;4964025;28;20043;-85
2021/12/21 15:11:11;;;;;;;18.17;8.07;;;;;;;;;;4971721;28;20097;-85
2021/12/21 15:13:37;;;;;;;15.05;8.65;;;;;;;;;;4963366;28;20061;-85
2021/12/21 15:16:03;;;;;;;17.25;8.43;;;;;;;;;;4936937;28;20062;-86
2021/12/21 15:18:30;;;;;;;13.50;8.05;;;;;;;;;;4961554;28;20035;-85
2021/12/21 15:20:56;;;;;;;12.80;8.02;;;;;;;;;;4980310;28;20061;-85
2021/12/21 15:23:22;;;;;;;15.38;7.88;;;;;;;;;;4959686;28;20457;-85
2021/12/21 15:25:49;;;;;;;17.80;7.50;;;;;;;;;;4949885;29;20043;-86
2021/12/21 15:28:15;;;;;;;12.73;7.88;;;;;;;;;;4949307;28;20628;-86
2021/12/21 15:30:41;;;;;;;16.98;7.47;;;;;;;;;;4949951;28;20051;-86
2021/12/21 15:33:07;;;;;;;13.27;7.80;;;;;;;;;;4955860;28;20035;-84
2021/12/21 15:35:34;;;;;;;15.00;8.20;;;;;;;;;;4960576;28;20051;-85
2021/12/21 15:38:00;;;;;;;13.13;8.30;;;;;;;;;;4958664;28;20057;-84
2021/12/21 15:40:26;;;;;;;14.73;7.95;;;;;;;;;;4957666;28;20035;-85
2021/12/21 15:43:06;;;;;;;15.40;9.55;;;;;;;;;;4948950;28;20085;-84
2021/12/21 15:45:32;;;;;;;19.23;10.00;;;;;;;;;;4951092;28;20046;-84
2021/12/21 15:47:58;;;;;;;13.90;10.80;;;;;;;;;;4940243;28;20054;-85